sensor_id;sensor_type;location;lat;lon;timestamp;temperature;humidity
12887;DHT22;6511;49.746;6.094;2023-05-13T00:00:37;10.60;99.90
12887;DHT22;6511;49.746;6.094;2023-05-13T00:03:02;10.50;99.90
12887;DHT22;6511;49.746;6.094;2023-05-13T00:05:28;10.50;99.90
12887;DHT22;6511;49.746;6.094;2023-05-13T00:07:54;10.50;99.90
12887;DHT22;6511;49.746;6.094;2023-05-13T00:10:20;10.50;99.90
12887;DHT22;6511;49.746;6.094;2023-05-13T00:12:45;10.50;99.90
12887;DHT22;6511;49.746;6.094;2023-05-13T00:15:12;10.40;99.90
12887;DHT22;6511;49.746;6.094;2023-05-13T00:17:37;10.30;99.90
12887;DHT22;6511;49.746;6.094;2023-05-13T00:20:03;10.40;99.90
12887;DHT22;6511;49.746;6.094;2023-05-13T00:22:29;10.40;99.90
12887;DHT22;6511;49.746;6.094;2023-05-13T00:24:55;10.40;99.90
12887;DHT22;6511;49.746;6.094;2023-05-13T00:27:20;10.40;99.90
12887;DHT22;6511;49.746;6.094;2023-05-13T00:29:46;10.40;99.90
12887;DHT22;6511;49.746;6.094;2023-05-13T00:32:11;10.30;99.90
12887;DHT22;6511;49.746;6.094;2023-05-13T00:34:37;10.20;99.90
12887;DHT22;6511;49.746;6.094;2023-05-13T00:37:02;10.20;99.90
12887;DHT22;6511;49.746;6.094;2023-05-13T00:39:29;10.30;99.90
12887;DHT22;6511;49.746;6.094;2023-05-13T00:41:54;10.30;99.90
12887;DHT22;6511;49.746;6.094;2023-05-13T00:44:20;10.10;99.90
12887;DHT22;6511;49.746;6.094;2023-05-13T00:46:46;10.00;99.90
12887;DHT22;6511;49.746;6.094;2023-05-13T00:49:12;9.80;99.90
12887;DHT22;6511;49.746;6.094;2023-05-13T00:51:37;9.80;99.90
12887;DHT22;6511;49.746;6.094;2023-05-13T00:54:03;9.70;99.90
12887;DHT22;6511;49.746;6.094;2023-05-13T00:56:29;9.70;99.90
12887;DHT22;6511;49.746;6.094;2023-05-13T00:58:54;9.90;99.90
12887;DHT22;6511;49.746;6.094;2023-05-13T01:01:43;9.90;99.90
12887;DHT22;6511;49.746;6.094;2023-05-13T01:12:35;9.90;99.90
12887;DHT22;6511;49.746;6.094;2023-05-13T01:15:18;9.50;99.90
12887;DHT22;6511;49.746;6.094;2023-05-13T01:20:11;9.30;99.90
12887;DHT22;6511;49.746;6.094;2023-05-13T01:22:37;9.30;99.90
12887;DHT22;6511;49.746;6.094;2023-05-13T01:25:02;9.20;99.90
12887;DHT22;6511;49.746;6.094;2023-05-13T01:27:28;9.20;99.90
12887;DHT22;6511;49.746;6.094;2023-05-13T01:29:54;9.10;99.90
12887;DHT22;6511;49.746;6.094;2023-05-13T01:32:21;8.90;99.90
12887;DHT22;6511;49.746;6.094;2023-05-13T01:34:50;8.70;99.90
12887;DHT22;6511;49.746;6.094;2023-05-13T01:37:15;8.50;99.90
12887;DHT22;6511;49.746;6.094;2023-05-13T01:39:41;8.40;99.90
12887;DHT22;6511;49.746;6.094;2023-05-13T01:42:07;8.30;99.90
12887;DHT22;6511;49.746;6.094;2023-05-13T01:44:33;8.30;99.90
12887;DHT22;6511;49.746;6.094;2023-05-13T01:46:59;8.30;99.90
12887;DHT22;6511;49.746;6.094;2023-05-13T01:49:24;8.30;99.90
12887;DHT22;6511;49.746;6.094;2023-05-13T01:51:50;8.40;99.90
12887;DHT22;6511;49.746;6.094;2023-05-13T01:54:16;8.60;99.90
12887;DHT22;6511;49.746;6.094;2023-05-13T01:56:41;8.70;99.90
12887;DHT22;6511;49.746;6.094;2023-05-13T01:59:09;8.90;99.90
12887;DHT22;6511;49.746;6.094;2023-05-13T02:01:35;8.40;99.90
12887;DHT22;6511;49.746;6.094;2023-05-13T02:04:01;8.30;99.90
12887;DHT22;6511;49.746;6.094;2023-05-13T02:06:27;8.20;99.90
12887;DHT22;6511;49.746;6.094;2023-05-13T02:08:52;8.10;99.90
12887;DHT22;6511;49.746;6.094;2023-05-13T02:11:19;8.00;99.90
12887;DHT22;6511;49.746;6.094;2023-05-13T02:13:44;8.50;99.90
12887;DHT22;6511;49.746;6.094;2023-05-13T02:16:15;8.60;99.90
12887;DHT22;6511;49.746;6.094;2023-05-13T02:18:41;8.40;99.90
12887;DHT22;6511;49.746;6.094;2023-05-13T02:21:06;8.40;99.90
12887;DHT22;6511;49.746;6.094;2023-05-13T02:23:32;8.30;99.90
12887;DHT22;6511;49.746;6.094;2023-05-13T02:25:57;8.10;99.90
12887;DHT22;6511;49.746;6.094;2023-05-13T02:28:23;8.10;99.90
12887;DHT22;6511;49.746;6.094;2023-05-13T02:30:49;8.00;99.90
12887;DHT22;6511;49.746;6.094;2023-05-13T02:33:14;7.90;99.90
12887;DHT22;6511;49.746;6.094;2023-05-13T02:35:40;7.80;99.90
12887;DHT22;6511;49.746;6.094;2023-05-13T02:38:08;7.70;99.90
12887;DHT22;6511;49.746;6.094;2023-05-13T02:40:34;7.60;99.90
12887;DHT22;6511;49.746;6.094;2023-05-13T02:43:00;7.50;99.90
12887;DHT22;6511;49.746;6.094;2023-05-13T02:45:25;7.60;99.90
12887;DHT22;6511;49.746;6.094;2023-05-13T02:47:51;7.80;99.90
12887;DHT22;6511;49.746;6.094;2023-05-13T02:50:18;7.70;99.90
12887;DHT22;6511;49.746;6.094;2023-05-13T02:52:43;7.50;99.90
12887;DHT22;6511;49.746;6.094;2023-05-13T02:55:09;7.40;99.90
12887;DHT22;6511;49.746;6.094;2023-05-13T02:57:35;7.40;99.90
12887;DHT22;6511;49.746;6.094;2023-05-13T03:00:03;7.40;99.90
12887;DHT22;6511;49.746;6.094;2023-05-13T03:02:29;7.50;99.90
12887;DHT22;6511;49.746;6.094;2023-05-13T03:04:55;7.40;99.90
12887;DHT22;6511;49.746;6.094;2023-05-13T03:07:21;7.50;99.90
12887;DHT22;6511;49.746;6.094;2023-05-13T03:09:47;7.50;99.90
12887;DHT22;6511;49.746;6.094;2023-05-13T03:12:12;7.30;99.90
12887;DHT22;6511;49.746;6.094;2023-05-13T03:14:38;7.30;99.90
12887;DHT22;6511;49.746;6.094;2023-05-13T03:17:05;7.30;99.90
12887;DHT22;6511;49.746;6.094;2023-05-13T03:19:32;7.40;99.90
12887;DHT22;6511;49.746;6.094;2023-05-13T03:21:58;7.40;99.90
12887;DHT22;6511;49.746;6.094;2023-05-13T03:24:24;7.40;99.90
12887;DHT22;6511;49.746;6.094;2023-05-13T03:26:49;7.30;99.90
12887;DHT22;6511;49.746;6.094;2023-05-13T03:29:15;7.20;99.90
12887;DHT22;6511;49.746;6.094;2023-05-13T03:31:41;7.10;99.90
12887;DHT22;6511;49.746;6.094;2023-05-13T03:34:06;7.10;99.90
12887;DHT22;6511;49.746;6.094;2023-05-13T03:36:32;7.10;99.90
12887;DHT22;6511;49.746;6.094;2023-05-13T03:38:57;7.10;99.90
12887;DHT22;6511;49.746;6.094;2023-05-13T03:41:23;7.00;99.90
12887;DHT22;6511;49.746;6.094;2023-05-13T03:43:49;7.00;99.90
12887;DHT22;6511;49.746;6.094;2023-05-13T03:46:15;7.00;99.90
12887;DHT22;6511;49.746;6.094;2023-05-13T03:48:40;7.00;99.90
12887;DHT22;6511;49.746;6.094;2023-05-13T03:51:06;6.90;99.90
12887;DHT22;6511;49.746;6.094;2023-05-13T03:53:31;6.80;99.90
12887;DHT22;6511;49.746;6.094;2023-05-13T03:55:57;6.80;99.90
12887;DHT22;6511;49.746;6.094;2023-05-13T03:58:23;6.90;99.90
12887;DHT22;6511;49.746;6.094;2023-05-13T04:00:48;7.00;99.90
12887;DHT22;6511;49.746;6.094;2023-05-13T04:03:15;7.00;99.90
12887;DHT22;6511;49.746;6.094;2023-05-13T04:05:42;7.00;99.90
12887;DHT22;6511;49.746;6.094;2023-05-13T04:08:07;7.00;99.90
12887;DHT22;6511;49.746;6.094;2023-05-13T04:10:33;7.00;99.90
12887;DHT22;6511;49.746;6.094;2023-05-13T04:12:59;7.00;99.90
12887;DHT22;6511;49.746;6.094;2023-05-13T04:15:24;6.90;99.90
12887;DHT22;6511;49.746;6.094;2023-05-13T04:17:50;6.80;99.90
12887;DHT22;6511;49.746;6.094;2023-05-13T04:20:16;6.70;99.90
12887;DHT22;6511;49.746;6.094;2023-05-13T04:22:42;6.60;99.90
12887;DHT22;6511;49.746;6.094;2023-05-13T04:25:08;6.70;99.90
12887;DHT22;6511;49.746;6.094;2023-05-13T04:27:34;6.70;99.90
12887;DHT22;6511;49.746;6.094;2023-05-13T04:29:59;6.80;99.90
12887;DHT22;6511;49.746;6.094;2023-05-13T04:32:25;6.80;99.90
12887;DHT22;6511;49.746;6.094;2023-05-13T04:34:52;6.80;99.90
12887;DHT22;6511;49.746;6.094;2023-05-13T04:37:18;7.00;99.90
12887;DHT22;6511;49.746;6.094;2023-05-13T04:39:47;7.00;99.90
12887;DHT22;6511;49.746;6.094;2023-05-13T04:42:13;7.10;99.90
12887;DHT22;6511;49.746;6.094;2023-05-13T04:44:39;7.10;99.90
12887;DHT22;6511;49.746;6.094;2023-05-13T04:47:05;7.30;99.90
12887;DHT22;6511;49.746;6.094;2023-05-13T04:49:31;7.40;99.90
12887;DHT22;6511;49.746;6.094;2023-05-13T04:51:56;7.40;99.90
12887;DHT22;6511;49.746;6.094;2023-05-13T04:54:22;7.40;99.90
12887;DHT22;6511;49.746;6.094;2023-05-13T04:56:48;7.50;99.90
12887;DHT22;6511;49.746;6.094;2023-05-13T04:59:14;7.50;99.90
12887;DHT22;6511;49.746;6.094;2023-05-13T05:01:39;7.50;99.90
12887;DHT22;6511;49.746;6.094;2023-05-13T05:04:05;7.60;99.90
12887;DHT22;6511;49.746;6.094;2023-05-13T05:06:31;7.70;99.90
12887;DHT22;6511;49.746;6.094;2023-05-13T05:08:57;7.80;99.90
12887;DHT22;6511;49.746;6.094;2023-05-13T05:11:23;7.80;99.90
12887;DHT22;6511;49.746;6.094;2023-05-13T05:13:48;7.90;99.90
12887;DHT22;6511;49.746;6.094;2023-05-13T05:16:14;7.90;99.90
12887;DHT22;6511;49.746;6.094;2023-05-13T05:18:40;8.00;99.90
12887;DHT22;6511;49.746;6.094;2023-05-13T05:21:07;8.10;99.90
12887;DHT22;6511;49.746;6.094;2023-05-13T05:23:33;8.20;99.90
12887;DHT22;6511;49.746;6.094;2023-05-13T05:25:59;8.30;99.90
12887;DHT22;6511;49.746;6.094;2023-05-13T05:28:25;8.40;99.90
12887;DHT22;6511;49.746;6.094;2023-05-13T05:30:51;8.50;99.90
12887;DHT22;6511;49.746;6.094;2023-05-13T05:33:17;8.50;99.90
12887;DHT22;6511;49.746;6.094;2023-05-13T05:35:42;8.60;99.90
12887;DHT22;6511;49.746;6.094;2023-05-13T05:38:09;8.60;99.90
12887;DHT22;6511;49.746;6.094;2023-05-13T05:40:39;8.60;99.90
12887;DHT22;6511;49.746;6.094;2023-05-13T05:43:05;8.60;99.90
12887;DHT22;6511;49.746;6.094;2023-05-13T05:45:31;8.80;99.90
12887;DHT22;6511;49.746;6.094;2023-05-13T05:47:57;9.00;99.90
12887;DHT22;6511;49.746;6.094;2023-05-13T05:50:22;9.10;99.90
12887;DHT22;6511;49.746;6.094;2023-05-13T05:52:48;9.20;99.90
12887;DHT22;6511;49.746;6.094;2023-05-13T05:55:14;9.20;99.90
12887;DHT22;6511;49.746;6.094;2023-05-13T05:57:39;9.20;99.90
12887;DHT22;6511;49.746;6.094;2023-05-13T06:00:06;9.20;99.90
12887;DHT22;6511;49.746;6.094;2023-05-13T06:02:32;9.30;99.90
12887;DHT22;6511;49.746;6.094;2023-05-13T06:04:57;9.30;99.90
12887;DHT22;6511;49.746;6.094;2023-05-13T06:07:23;9.40;99.90
12887;DHT22;6511;49.746;6.094;2023-05-13T06:09:49;9.50;99.90
12887;DHT22;6511;49.746;6.094;2023-05-13T06:12:15;9.60;99.90
12887;DHT22;6511;49.746;6.094;2023-05-13T06:14:40;9.50;99.90
12887;DHT22;6511;49.746;6.094;2023-05-13T06:17:06;9.70;99.90
12887;DHT22;6511;49.746;6.094;2023-05-13T06:19:31;9.80;99.90
12887;DHT22;6511;49.746;6.094;2023-05-13T06:21:57;10.00;99.90
12887;DHT22;6511;49.746;6.094;2023-05-13T06:24:23;10.20;99.90
12887;DHT22;6511;49.746;6.094;2023-05-13T06:26:48;10.20;99.90
12887;DHT22;6511;49.746;6.094;2023-05-13T06:29:14;10.40;99.90
12887;DHT22;6511;49.746;6.094;2023-05-13T06:31:39;10.60;99.90
12887;DHT22;6511;49.746;6.094;2023-05-13T06:34:05;10.70;99.90
12887;DHT22;6511;49.746;6.094;2023-05-13T06:36:30;10.80;99.90
12887;DHT22;6511;49.746;6.094;2023-05-13T06:38:56;10.90;99.90
12887;DHT22;6511;49.746;6.094;2023-05-13T06:41:22;11.00;99.90
12887;DHT22;6511;49.746;6.094;2023-05-13T06:43:47;11.10;99.90
12887;DHT22;6511;49.746;6.094;2023-05-13T06:46:14;11.10;99.90
12887;DHT22;6511;49.746;6.094;2023-05-13T06:48:40;11.20;99.90
12887;DHT22;6511;49.746;6.094;2023-05-13T06:51:05;11.30;99.90
12887;DHT22;6511;49.746;6.094;2023-05-13T06:53:37;11.50;99.90
12887;DHT22;6511;49.746;6.094;2023-05-13T06:56:06;11.60;99.90
12887;DHT22;6511;49.746;6.094;2023-05-13T06:58:32;11.60;99.90
12887;DHT22;6511;49.746;6.094;2023-05-13T07:00:58;11.80;99.90
12887;DHT22;6511;49.746;6.094;2023-05-13T07:03:24;12.00;99.90
12887;DHT22;6511;49.746;6.094;2023-05-13T07:05:49;12.10;99.90
12887;DHT22;6511;49.746;6.094;2023-05-13T07:08:15;12.10;99.90
12887;DHT22;6511;49.746;6.094;2023-05-13T07:10:43;12.20;99.90
12887;DHT22;6511;49.746;6.094;2023-05-13T07:13:09;12.20;99.90
12887;DHT22;6511;49.746;6.094;2023-05-13T07:15:35;12.30;99.90
12887;DHT22;6511;49.746;6.094;2023-05-13T07:18:01;12.20;99.90
12887;DHT22;6511;49.746;6.094;2023-05-13T07:20:27;12.30;99.90
12887;DHT22;6511;49.746;6.094;2023-05-13T07:22:52;12.40;99.90
12887;DHT22;6511;49.746;6.094;2023-05-13T07:25:18;12.50;99.90
12887;DHT22;6511;49.746;6.094;2023-05-13T07:27:44;12.50;99.90
12887;DHT22;6511;49.746;6.094;2023-05-13T07:30:11;12.60;99.90
12887;DHT22;6511;49.746;6.094;2023-05-13T07:32:37;12.60;99.90
12887;DHT22;6511;49.746;6.094;2023-05-13T07:35:03;12.80;99.90
12887;DHT22;6511;49.746;6.094;2023-05-13T07:37:29;13.00;99.90
12887;DHT22;6511;49.746;6.094;2023-05-13T07:39:54;13.00;99.90
12887;DHT22;6511;49.746;6.094;2023-05-13T07:42:20;13.20;99.90
12887;DHT22;6511;49.746;6.094;2023-05-13T07:44:46;13.30;99.90
12887;DHT22;6511;49.746;6.094;2023-05-13T07:47:12;13.30;99.90
12887;DHT22;6511;49.746;6.094;2023-05-13T07:49:38;13.40;99.90
12887;DHT22;6511;49.746;6.094;2023-05-13T07:52:03;13.50;99.90
12887;DHT22;6511;49.746;6.094;2023-05-13T07:54:29;13.60;99.90
12887;DHT22;6511;49.746;6.094;2023-05-13T07:56:54;13.80;99.90
12887;DHT22;6511;49.746;6.094;2023-05-13T07:59:20;14.00;99.90
12887;DHT22;6511;49.746;6.094;2023-05-13T08:01:46;14.10;99.90
12887;DHT22;6511;49.746;6.094;2023-05-13T08:04:11;14.10;99.90
12887;DHT22;6511;49.746;6.094;2023-05-13T08:06:37;14.30;99.90
12887;DHT22;6511;49.746;6.094;2023-05-13T08:09:02;14.30;99.90
12887;DHT22;6511;49.746;6.094;2023-05-13T08:11:28;14.50;99.90
12887;DHT22;6511;49.746;6.094;2023-05-13T08:13:54;14.50;99.90
12887;DHT22;6511;49.746;6.094;2023-05-13T08:16:20;14.60;99.90
12887;DHT22;6511;49.746;6.094;2023-05-13T08:18:45;14.70;99.90
12887;DHT22;6511;49.746;6.094;2023-05-13T08:21:11;14.80;99.90
12887;DHT22;6511;49.746;6.094;2023-05-13T08:23:37;14.80;99.90
12887;DHT22;6511;49.746;6.094;2023-05-13T08:26:03;14.90;99.90
12887;DHT22;6511;49.746;6.094;2023-05-13T08:28:28;15.10;99.90
12887;DHT22;6511;49.746;6.094;2023-05-13T08:30:55;15.20;99.90
12887;DHT22;6511;49.746;6.094;2023-05-13T08:33:28;15.40;99.90
12887;DHT22;6511;49.746;6.094;2023-05-13T08:35:53;15.50;99.90
12887;DHT22;6511;49.746;6.094;2023-05-13T08:38:19;15.60;99.90
12887;DHT22;6511;49.746;6.094;2023-05-13T08:40:45;15.70;99.90
12887;DHT22;6511;49.746;6.094;2023-05-13T08:43:14;15.80;99.90
12887;DHT22;6511;49.746;6.094;2023-05-13T08:45:41;15.80;99.90
12887;DHT22;6511;49.746;6.094;2023-05-13T08:48:09;16.20;99.90
12887;DHT22;6511;49.746;6.094;2023-05-13T08:50:35;16.30;99.90
12887;DHT22;6511;49.746;6.094;2023-05-13T08:53:01;16.50;99.90
12887;DHT22;6511;49.746;6.094;2023-05-13T08:55:28;16.60;99.90
12887;DHT22;6511;49.746;6.094;2023-05-13T08:57:53;16.50;99.90
12887;DHT22;6511;49.746;6.094;2023-05-13T09:00:19;16.40;99.90
12887;DHT22;6511;49.746;6.094;2023-05-13T09:02:45;16.40;99.90
12887;DHT22;6511;49.746;6.094;2023-05-13T09:05:10;16.40;99.90
12887;DHT22;6511;49.746;6.094;2023-05-13T09:07:37;16.50;99.90
12887;DHT22;6511;49.746;6.094;2023-05-13T09:10:04;16.60;99.90
12887;DHT22;6511;49.746;6.094;2023-05-13T09:15:21;16.70;99.90
12887;DHT22;6511;49.746;6.094;2023-05-13T09:17:49;16.80;99.90
12887;DHT22;6511;49.746;6.094;2023-05-13T09:20:17;16.80;99.90
12887;DHT22;6511;49.746;6.094;2023-05-13T09:22:48;16.80;99.90
12887;DHT22;6511;49.746;6.094;2023-05-13T09:25:16;16.90;99.90
12887;DHT22;6511;49.746;6.094;2023-05-13T09:27:45;17.00;99.90
12887;DHT22;6511;49.746;6.094;2023-05-13T09:30:10;16.90;99.90
12887;DHT22;6511;49.746;6.094;2023-05-13T09:32:37;17.10;99.90
12887;DHT22;6511;49.746;6.094;2023-05-13T09:35:11;16.90;99.90
12887;DHT22;6511;49.746;6.094;2023-05-13T09:37:44;17.00;99.90
12887;DHT22;6511;49.746;6.094;2023-05-13T09:40:12;17.10;99.90
12887;DHT22;6511;49.746;6.094;2023-05-13T09:42:45;17.00;99.90
12887;DHT22;6511;49.746;6.094;2023-05-13T09:45:15;17.20;99.90
12887;DHT22;6511;49.746;6.094;2023-05-13T09:47:41;17.30;99.90
12887;DHT22;6511;49.746;6.094;2023-05-13T09:50:09;17.40;99.90
12887;DHT22;6511;49.746;6.094;2023-05-13T09:52:36;17.50;99.90
12887;DHT22;6511;49.746;6.094;2023-05-13T09:55:02;17.40;99.90
12887;DHT22;6511;49.746;6.094;2023-05-13T09:57:32;17.50;99.90
12887;DHT22;6511;49.746;6.094;2023-05-13T10:00:02;17.40;99.90
12887;DHT22;6511;49.746;6.094;2023-05-13T10:02:32;17.60;99.90
12887;DHT22;6511;49.746;6.094;2023-05-13T10:04:59;17.50;99.90
12887;DHT22;6511;49.746;6.094;2023-05-13T10:07:25;17.60;99.90
12887;DHT22;6511;49.746;6.094;2023-05-13T10:09:56;17.80;99.90
12887;DHT22;6511;49.746;6.094;2023-05-13T10:12:24;17.90;99.90
12887;DHT22;6511;49.746;6.094;2023-05-13T10:14:50;17.80;99.90
12887;DHT22;6511;49.746;6.094;2023-05-13T10:17:21;18.30;99.90
12887;DHT22;6511;49.746;6.094;2023-05-13T10:19:49;18.70;99.90
12887;DHT22;6511;49.746;6.094;2023-05-13T10:22:25;18.60;99.90
12887;DHT22;6511;49.746;6.094;2023-05-13T10:24:52;18.30;99.90
12887;DHT22;6511;49.746;6.094;2023-05-13T10:27:19;18.20;99.90
12887;DHT22;6511;49.746;6.094;2023-05-13T10:29:47;18.30;99.90
12887;DHT22;6511;49.746;6.094;2023-05-13T10:32:18;18.20;99.90
12887;DHT22;6511;49.746;6.094;2023-05-13T10:34:44;18.30;99.90
12887;DHT22;6511;49.746;6.094;2023-05-13T10:42:40;18.70;99.90
12887;DHT22;6511;49.746;6.094;2023-05-13T10:45:08;18.90;99.90
12887;DHT22;6511;49.746;6.094;2023-05-13T10:47:36;18.80;99.90
12887;DHT22;6511;49.746;6.094;2023-05-13T10:50:27;18.70;99.90
12887;DHT22;6511;49.746;6.094;2023-05-13T10:52:57;18.90;99.90
12887;DHT22;6511;49.746;6.094;2023-05-13T10:55:22;19.00;99.90
12887;DHT22;6511;49.746;6.094;2023-05-13T10:58:06;19.00;99.90
12887;DHT22;6511;49.746;6.094;2023-05-13T11:00:33;19.10;99.90
12887;DHT22;6511;49.746;6.094;2023-05-13T11:03:11;19.00;99.90
12887;DHT22;6511;49.746;6.094;2023-05-13T11:05:45;19.00;99.90
12887;DHT22;6511;49.746;6.094;2023-05-13T11:08:31;19.10;99.90
12887;DHT22;6511;49.746;6.094;2023-05-13T11:10:57;19.40;99.90
12887;DHT22;6511;49.746;6.094;2023-05-13T11:13:22;19.30;99.90
12887;DHT22;6511;49.746;6.094;2023-05-13T11:15:59;19.30;99.90
12887;DHT22;6511;49.746;6.094;2023-05-13T11:18:28;19.40;99.90
12887;DHT22;6511;49.746;6.094;2023-05-13T11:20:55;19.40;99.90
12887;DHT22;6511;49.746;6.094;2023-05-13T11:23:21;19.40;99.90
12887;DHT22;6511;49.746;6.094;2023-05-13T11:26:10;19.40;99.90
12887;DHT22;6511;49.746;6.094;2023-05-13T11:29:06;19.40;99.90
12887;DHT22;6511;49.746;6.094;2023-05-13T11:31:46;19.40;99.90
12887;DHT22;6511;49.746;6.094;2023-05-13T11:34:13;19.30;99.90
12887;DHT22;6511;49.746;6.094;2023-05-13T11:36:41;19.30;99.90
12887;DHT22;6511;49.746;6.094;2023-05-13T11:39:12;19.30;99.90
12887;DHT22;6511;49.746;6.094;2023-05-13T11:41:49;19.40;99.90
12887;DHT22;6511;49.746;6.094;2023-05-13T11:44:17;19.30;99.90
12887;DHT22;6511;49.746;6.094;2023-05-13T11:47:00;19.40;99.90
12887;DHT22;6511;49.746;6.094;2023-05-13T11:49:33;19.60;99.90
12887;DHT22;6511;49.746;6.094;2023-05-13T11:52:04;19.50;99.90
12887;DHT22;6511;49.746;6.094;2023-05-13T11:54:30;19.30;99.90
12887;DHT22;6511;49.746;6.094;2023-05-13T11:56:56;19.30;99.90
12887;DHT22;6511;49.746;6.094;2023-05-13T11:59:22;19.40;99.90
12887;DHT22;6511;49.746;6.094;2023-05-13T12:01:58;19.60;99.90
12887;DHT22;6511;49.746;6.094;2023-05-13T12:04:30;19.60;99.90
12887;DHT22;6511;49.746;6.094;2023-05-13T12:06:56;19.60;99.90
12887;DHT22;6511;49.746;6.094;2023-05-13T12:09:23;19.50;99.90
12887;DHT22;6511;49.746;6.094;2023-05-13T12:11:50;19.30;99.90
12887;DHT22;6511;49.746;6.094;2023-05-13T12:14:16;19.50;99.90
12887;DHT22;6511;49.746;6.094;2023-05-13T12:16:43;19.70;99.90
12887;DHT22;6511;49.746;6.094;2023-05-13T12:19:10;19.40;99.90
12887;DHT22;6511;49.746;6.094;2023-05-13T12:21:36;19.30;99.90
12887;DHT22;6511;49.746;6.094;2023-05-13T12:24:24;19.20;99.90
12887;DHT22;6511;49.746;6.094;2023-05-13T12:26:50;18.80;99.90
12887;DHT22;6511;49.746;6.094;2023-05-13T12:29:15;18.60;99.90
12887;DHT22;6511;49.746;6.094;2023-05-13T12:31:42;18.50;99.90
12887;DHT22;6511;49.746;6.094;2023-05-13T12:34:08;18.60;99.90
12887;DHT22;6511;49.746;6.094;2023-05-13T12:36:38;18.80;99.90
12887;DHT22;6511;49.746;6.094;2023-05-13T12:39:10;18.80;99.90
12887;DHT22;6511;49.746;6.094;2023-05-13T12:41:37;18.80;99.90
12887;DHT22;6511;49.746;6.094;2023-05-13T12:44:06;18.80;99.90
12887;DHT22;6511;49.746;6.094;2023-05-13T12:46:32;19.00;99.90
12887;DHT22;6511;49.746;6.094;2023-05-13T12:49:00;18.90;99.90
12887;DHT22;6511;49.746;6.094;2023-05-13T12:51:27;18.90;99.90
12887;DHT22;6511;49.746;6.094;2023-05-13T12:53:54;18.80;99.90
12887;DHT22;6511;49.746;6.094;2023-05-13T12:56:23;19.00;99.90
12887;DHT22;6511;49.746;6.094;2023-05-13T12:58:50;19.30;99.90
12887;DHT22;6511;49.746;6.094;2023-05-13T13:01:16;19.50;99.90
12887;DHT22;6511;49.746;6.094;2023-05-13T13:03:42;19.60;99.90
12887;DHT22;6511;49.746;6.094;2023-05-13T13:06:07;19.40;99.90
12887;DHT22;6511;49.746;6.094;2023-05-13T13:08:35;19.20;99.90
12887;DHT22;6511;49.746;6.094;2023-05-13T13:11:01;19.20;99.90
12887;DHT22;6511;49.746;6.094;2023-05-13T13:13:26;19.50;99.90
12887;DHT22;6511;49.746;6.094;2023-05-13T13:15:52;19.60;99.90
12887;DHT22;6511;49.746;6.094;2023-05-13T13:18:18;19.40;99.90
12887;DHT22;6511;49.746;6.094;2023-05-13T13:20:43;19.20;99.90
12887;DHT22;6511;49.746;6.094;2023-05-13T13:23:09;19.10;99.90
12887;DHT22;6511;49.746;6.094;2023-05-13T13:25:35;19.30;99.90
12887;DHT22;6511;49.746;6.094;2023-05-13T13:28:01;19.20;99.90
12887;DHT22;6511;49.746;6.094;2023-05-13T13:30:26;19.30;99.90
12887;DHT22;6511;49.746;6.094;2023-05-13T13:32:52;19.40;99.90
12887;DHT22;6511;49.746;6.094;2023-05-13T13:35:17;19.70;99.90
12887;DHT22;6511;49.746;6.094;2023-05-13T13:37:43;20.10;99.90
12887;DHT22;6511;49.746;6.094;2023-05-13T13:40:09;20.20;99.90
12887;DHT22;6511;49.746;6.094;2023-05-13T13:42:35;20.30;99.90
12887;DHT22;6511;49.746;6.094;2023-05-13T13:45:01;20.60;99.90
12887;DHT22;6511;49.746;6.094;2023-05-13T13:47:28;20.60;99.90
12887;DHT22;6511;49.746;6.094;2023-05-13T13:49:53;20.80;99.90
12887;DHT22;6511;49.746;6.094;2023-05-13T13:52:19;21.00;99.90
12887;DHT22;6511;49.746;6.094;2023-05-13T13:54:47;21.00;99.90
12887;DHT22;6511;49.746;6.094;2023-05-13T13:57:13;21.00;99.90
12887;DHT22;6511;49.746;6.094;2023-05-13T13:59:39;20.80;99.90
12887;DHT22;6511;49.746;6.094;2023-05-13T14:02:05;20.70;99.90
12887;DHT22;6511;49.746;6.094;2023-05-13T14:04:30;20.40;99.90
12887;DHT22;6511;49.746;6.094;2023-05-13T14:06:57;20.00;99.90
12887;DHT22;6511;49.746;6.094;2023-05-13T14:09:23;18.80;99.90
12887;DHT22;6511;49.746;6.094;2023-05-13T14:11:49;17.30;99.90
12887;DHT22;6511;49.746;6.094;2023-05-13T14:14:15;15.60;99.90
12887;DHT22;6511;49.746;6.094;2023-05-13T14:16:41;14.00;99.90
12887;DHT22;6511;49.746;6.094;2023-05-13T14:19:07;13.50;99.90
12887;DHT22;6511;49.746;6.094;2023-05-13T14:21:33;12.90;99.90
12887;DHT22;6511;49.746;6.094;2023-05-13T14:23:59;12.30;99.90
12887;DHT22;6511;49.746;6.094;2023-05-13T14:26:24;12.00;99.90
12887;DHT22;6511;49.746;6.094;2023-05-13T14:28:50;12.10;99.90
12887;DHT22;6511;49.746;6.094;2023-05-13T14:31:16;12.40;99.90
12887;DHT22;6511;49.746;6.094;2023-05-13T14:33:41;12.60;99.90
12887;DHT22;6511;49.746;6.094;2023-05-13T14:36:07;12.80;99.90
12887;DHT22;6511;49.746;6.094;2023-05-13T14:38:36;12.90;99.90
12887;DHT22;6511;49.746;6.094;2023-05-13T14:41:01;13.10;99.90
12887;DHT22;6511;49.746;6.094;2023-05-13T14:43:27;13.20;99.90
12887;DHT22;6511;49.746;6.094;2023-05-13T14:45:53;13.30;99.90
12887;DHT22;6511;49.746;6.094;2023-05-13T14:48:18;13.50;99.90
12887;DHT22;6511;49.746;6.094;2023-05-13T14:50:44;13.50;99.90
12887;DHT22;6511;49.746;6.094;2023-05-13T14:53:10;13.60;99.90
12887;DHT22;6511;49.746;6.094;2023-05-13T14:55:37;13.60;99.90
12887;DHT22;6511;49.746;6.094;2023-05-13T14:58:03;13.60;99.90
12887;DHT22;6511;49.746;6.094;2023-05-13T15:00:29;13.70;99.90
12887;DHT22;6511;49.746;6.094;2023-05-13T15:02:56;13.60;99.90
12887;DHT22;6511;49.746;6.094;2023-05-13T15:05:22;13.50;99.90
12887;DHT22;6511;49.746;6.094;2023-05-13T15:07:48;13.50;99.90
12887;DHT22;6511;49.746;6.094;2023-05-13T15:10:14;13.60;99.90
12887;DHT22;6511;49.746;6.094;2023-05-13T15:12:40;13.90;99.90
12887;DHT22;6511;49.746;6.094;2023-05-13T15:15:06;14.00;99.90
12887;DHT22;6511;49.746;6.094;2023-05-13T15:17:31;14.30;99.90
12887;DHT22;6511;49.746;6.094;2023-05-13T15:19:57;14.70;99.90
12887;DHT22;6511;49.746;6.094;2023-05-13T15:22:23;14.90;99.90
12887;DHT22;6511;49.746;6.094;2023-05-13T15:24:48;14.70;99.90
12887;DHT22;6511;49.746;6.094;2023-05-13T15:27:14;14.80;99.90
12887;DHT22;6511;49.746;6.094;2023-05-13T15:29:39;15.00;99.90
12887;DHT22;6511;49.746;6.094;2023-05-13T15:32:06;15.30;99.90
12887;DHT22;6511;49.746;6.094;2023-05-13T15:34:31;15.30;99.90
12887;DHT22;6511;49.746;6.094;2023-05-13T15:36:57;15.50;99.90
12887;DHT22;6511;49.746;6.094;2023-05-13T15:39:23;15.70;99.90
12887;DHT22;6511;49.746;6.094;2023-05-13T15:41:48;15.70;99.90
12887;DHT22;6511;49.746;6.094;2023-05-13T15:44:14;15.70;99.90
12887;DHT22;6511;49.746;6.094;2023-05-13T15:46:40;15.90;99.90
12887;DHT22;6511;49.746;6.094;2023-05-13T15:49:05;15.90;99.90
12887;DHT22;6511;49.746;6.094;2023-05-13T15:51:31;16.00;99.90
12887;DHT22;6511;49.746;6.094;2023-05-13T15:53:57;16.10;99.90
12887;DHT22;6511;49.746;6.094;2023-05-13T15:56:24;16.10;99.90
12887;DHT22;6511;49.746;6.094;2023-05-13T15:58:50;16.10;99.90
12887;DHT22;6511;49.746;6.094;2023-05-13T16:01:16;16.10;99.90
12887;DHT22;6511;49.746;6.094;2023-05-13T16:03:42;16.20;99.90
12887;DHT22;6511;49.746;6.094;2023-05-13T16:06:08;16.20;99.90
12887;DHT22;6511;49.746;6.094;2023-05-13T16:08:33;16.20;99.90